Weather at Dolpa Airport

Public forecast

Using degrees Celsius for public forecast. Weather courtesy of forecast.io.

Closest aviation weather report (METAR) to Dolpa Airport

Closest report is Tribhuvan International Airport, 155.0 nm (287.0 km) ESE.

2024/05/21 01:00 (retrieved 4 minutes ago)

VNKT 210100Z 10003KT 6000 FEW015 21/17 Q1015 NOSIG

Closest aviation forecast (TAF) to Dolpa Airport

Forecast is more than 12 hours old.

Closest forecast is Pantnagar Airport, 175.7 nm (325.3 km) W.

2024/05/20 12:00 (retrieved 13 hours ago)

TAF VIPT 201100Z 2012/2118 17005KT 5000 HZ NSC BECMG 2018/2020 07005KT 3000 HZ SCT100 BECMG 2100/2102 09010KT 3000 HZ NSC BECMG 2104/2106 11008G18KT 5000 HZ FEW080 BECMG 2108/2110 25010G20KT 6000 FEW035 SCT090 BECMG 2115/2117 09010KT 4000 HZ